sensor_id;sensor_type;location;lat;lon;timestamp;P1;durP1;ratioP1;P2;durP2;ratioP2
11931;SDS011;6025;51.368;6.788;2023-03-05T00:01:22;5.60;;;1.57;;
11931;SDS011;6025;51.368;6.788;2023-03-05T00:06:16;5.93;;;2.20;;
11931;SDS011;6025;51.368;6.788;2023-03-05T00:11:08;5.27;;;1.53;;
11931;SDS011;6025;51.368;6.788;2023-03-05T00:16:01;6.37;;;1.53;;
11931;SDS011;6025;51.368;6.788;2023-03-05T00:20:53;5.97;;;1.50;;
11931;SDS011;6025;51.368;6.788;2023-03-05T00:25:46;5.87;;;1.60;;
11931;SDS011;6025;51.368;6.788;2023-03-05T00:30:37;9.33;;;1.93;;
11931;SDS011;6025;51.368;6.788;2023-03-05T00:35:29;7.47;;;1.83;;
11931;SDS011;6025;51.368;6.788;2023-03-05T00:40:20;3.33;;;1.50;;
11931;SDS011;6025;51.368;6.788;2023-03-05T00:45:13;9.27;;;2.23;;
11931;SDS011;6025;51.368;6.788;2023-03-05T00:50:06;9.17;;;1.77;;
11931;SDS011;6025;51.368;6.788;2023-03-05T00:54:58;5.90;;;1.90;;
11931;SDS011;6025;51.368;6.788;2023-03-05T00:59:50;7.47;;;1.63;;
11931;SDS011;6025;51.368;6.788;2023-03-05T01:04:42;4.40;;;1.80;;
11931;SDS011;6025;51.368;6.788;2023-03-05T01:09:36;6.97;;;1.80;;
11931;SDS011;6025;51.368;6.788;2023-03-05T01:14:27;4.97;;;1.60;;
11931;SDS011;6025;51.368;6.788;2023-03-05T01:19:19;5.73;;;2.00;;
11931;SDS011;6025;51.368;6.788;2023-03-05T01:24:12;7.73;;;1.93;;
11931;SDS011;6025;51.368;6.788;2023-03-05T01:29:03;9.27;;;2.07;;
11931;SDS011;6025;51.368;6.788;2023-03-05T01:33:55;3.50;;;1.70;;
11931;SDS011;6025;51.368;6.788;2023-03-05T01:38:49;5.40;;;2.00;;
11931;SDS011;6025;51.368;6.788;2023-03-05T01:43:43;7.20;;;1.83;;
11931;SDS011;6025;51.368;6.788;2023-03-05T01:48:36;8.53;;;1.83;;
11931;SDS011;6025;51.368;6.788;2023-03-05T01:53:28;8.47;;;2.27;;
11931;SDS011;6025;51.368;6.788;2023-03-05T01:58:19;5.73;;;1.83;;
11931;SDS011;6025;51.368;6.788;2023-03-05T02:03:12;8.17;;;1.90;;
11931;SDS011;6025;51.368;6.788;2023-03-05T02:08:05;7.27;;;1.93;;
11931;SDS011;6025;51.368;6.788;2023-03-05T02:12:58;6.90;;;1.73;;
11931;SDS011;6025;51.368;6.788;2023-03-05T02:17:51;6.50;;;1.93;;
11931;SDS011;6025;51.368;6.788;2023-03-05T02:22:44;7.80;;;1.87;;
11931;SDS011;6025;51.368;6.788;2023-03-05T02:27:36;6.27;;;1.80;;
11931;SDS011;6025;51.368;6.788;2023-03-05T02:32:27;5.77;;;1.90;;
11931;SDS011;6025;51.368;6.788;2023-03-05T02:37:19;5.67;;;1.80;;
11931;SDS011;6025;51.368;6.788;2023-03-05T02:42:12;5.00;;;1.83;;
11931;SDS011;6025;51.368;6.788;2023-03-05T02:47:03;5.80;;;1.90;;
11931;SDS011;6025;51.368;6.788;2023-03-05T02:51:55;9.47;;;2.27;;
11931;SDS011;6025;51.368;6.788;2023-03-05T02:56:47;7.20;;;2.03;;
11931;SDS011;6025;51.368;6.788;2023-03-05T03:01:40;8.20;;;1.80;;
11931;SDS011;6025;51.368;6.788;2023-03-05T03:06:31;4.37;;;1.80;;
11931;SDS011;6025;51.368;6.788;2023-03-05T03:11:23;6.97;;;1.97;;
11931;SDS011;6025;51.368;6.788;2023-03-05T03:16:15;8.43;;;1.73;;
11931;SDS011;6025;51.368;6.788;2023-03-05T03:21:14;5.13;;;1.50;;
11931;SDS011;6025;51.368;6.788;2023-03-05T03:26:07;6.23;;;1.50;;
11931;SDS011;6025;51.368;6.788;2023-03-05T03:30:58;3.90;;;1.50;;
11931;SDS011;6025;51.368;6.788;2023-03-05T03:35:50;5.80;;;1.83;;
11931;SDS011;6025;51.368;6.788;2023-03-05T03:40:43;5.97;;;1.90;;
11931;SDS011;6025;51.368;6.788;2023-03-05T03:45:34;6.93;;;1.93;;
11931;SDS011;6025;51.368;6.788;2023-03-05T03:50:26;4.77;;;1.63;;
11931;SDS011;6025;51.368;6.788;2023-03-05T03:55:17;8.03;;;2.10;;
11931;SDS011;6025;51.368;6.788;2023-03-05T04:00:11;4.60;;;1.50;;
11931;SDS011;6025;51.368;6.788;2023-03-05T04:05:03;6.43;;;1.90;;
11931;SDS011;6025;51.368;6.788;2023-03-05T04:09:55;5.17;;;1.63;;
11931;SDS011;6025;51.368;6.788;2023-03-05T04:14:47;4.20;;;1.73;;
11931;SDS011;6025;51.368;6.788;2023-03-05T04:19:40;4.77;;;1.50;;
11931;SDS011;6025;51.368;6.788;2023-03-05T04:24:32;4.83;;;1.70;;
11931;SDS011;6025;51.368;6.788;2023-03-05T04:29:24;6.60;;;2.27;;
11931;SDS011;6025;51.368;6.788;2023-03-05T04:34:15;5.73;;;1.80;;
11931;SDS011;6025;51.368;6.788;2023-03-05T04:39:08;5.33;;;1.83;;
11931;SDS011;6025;51.368;6.788;2023-03-05T04:44:00;4.97;;;1.40;;
11931;SDS011;6025;51.368;6.788;2023-03-05T04:48:52;7.00;;;1.97;;
11931;SDS011;6025;51.368;6.788;2023-03-05T04:53:43;5.93;;;1.80;;
11931;SDS011;6025;51.368;6.788;2023-03-05T04:58:36;5.47;;;1.87;;
11931;SDS011;6025;51.368;6.788;2023-03-05T05:03:28;5.80;;;1.97;;
11931;SDS011;6025;51.368;6.788;2023-03-05T05:08:19;4.97;;;1.60;;
11931;SDS011;6025;51.368;6.788;2023-03-05T05:13:11;6.00;;;1.80;;
11931;SDS011;6025;51.368;6.788;2023-03-05T05:18:04;5.07;;;1.60;;
11931;SDS011;6025;51.368;6.788;2023-03-05T05:22:55;6.50;;;1.80;;
11931;SDS011;6025;51.368;6.788;2023-03-05T05:27:47;7.33;;;1.80;;
11931;SDS011;6025;51.368;6.788;2023-03-05T05:32:38;7.10;;;1.83;;
11931;SDS011;6025;51.368;6.788;2023-03-05T05:37:31;6.00;;;1.70;;
11931;SDS011;6025;51.368;6.788;2023-03-05T05:42:23;6.27;;;2.10;;
11931;SDS011;6025;51.368;6.788;2023-03-05T05:47:15;9.57;;;2.30;;
11931;SDS011;6025;51.368;6.788;2023-03-05T05:52:07;6.03;;;1.97;;
11931;SDS011;6025;51.368;6.788;2023-03-05T05:57:00;4.63;;;1.90;;
11931;SDS011;6025;51.368;6.788;2023-03-05T06:01:52;6.70;;;2.00;;
11931;SDS011;6025;51.368;6.788;2023-03-05T06:06:43;5.70;;;2.17;;
11931;SDS011;6025;51.368;6.788;2023-03-05T06:11:35;4.50;;;2.00;;
11931;SDS011;6025;51.368;6.788;2023-03-05T06:16:28;7.47;;;2.23;;
11931;SDS011;6025;51.368;6.788;2023-03-05T06:21:20;9.13;;;2.60;;
11931;SDS011;6025;51.368;6.788;2023-03-05T06:26:13;5.80;;;2.00;;
11931;SDS011;6025;51.368;6.788;2023-03-05T06:31:07;6.73;;;2.47;;
11931;SDS011;6025;51.368;6.788;2023-03-05T06:36:01;5.87;;;2.93;;
11931;SDS011;6025;51.368;6.788;2023-03-05T06:40:53;7.70;;;3.07;;
11931;SDS011;6025;51.368;6.788;2023-03-05T06:45:44;7.73;;;4.30;;
11931;SDS011;6025;51.368;6.788;2023-03-05T06:50:36;8.57;;;3.27;;
11931;SDS011;6025;51.368;6.788;2023-03-05T06:55:29;8.87;;;2.90;;
11931;SDS011;6025;51.368;6.788;2023-03-05T07:00:21;5.53;;;1.90;;
11931;SDS011;6025;51.368;6.788;2023-03-05T07:05:13;7.83;;;2.50;;
11931;SDS011;6025;51.368;6.788;2023-03-05T07:10:06;3.27;;;1.70;;
11931;SDS011;6025;51.368;6.788;2023-03-05T07:15:00;11.43;;;2.70;;
11931;SDS011;6025;51.368;6.788;2023-03-05T07:19:51;6.83;;;2.53;;
11931;SDS011;6025;51.368;6.788;2023-03-05T07:24:43;8.17;;;3.07;;
11931;SDS011;6025;51.368;6.788;2023-03-05T07:29:35;9.20;;;3.47;;
11931;SDS011;6025;51.368;6.788;2023-03-05T07:34:27;8.07;;;3.60;;
11931;SDS011;6025;51.368;6.788;2023-03-05T07:39:19;6.90;;;3.20;;
11931;SDS011;6025;51.368;6.788;2023-03-05T07:44:10;9.43;;;3.30;;
11931;SDS011;6025;51.368;6.788;2023-03-05T07:49:02;5.83;;;3.00;;
11931;SDS011;6025;51.368;6.788;2023-03-05T07:53:56;7.43;;;2.60;;
11931;SDS011;6025;51.368;6.788;2023-03-05T07:58:48;6.93;;;3.27;;
11931;SDS011;6025;51.368;6.788;2023-03-05T08:03:40;9.63;;;3.27;;
11931;SDS011;6025;51.368;6.788;2023-03-05T08:08:31;5.63;;;2.50;;
11931;SDS011;6025;51.368;6.788;2023-03-05T08:13:24;9.87;;;3.57;;
11931;SDS011;6025;51.368;6.788;2023-03-05T08:18:16;6.00;;;3.37;;
11931;SDS011;6025;51.368;6.788;2023-03-05T08:23:08;14.00;;;4.27;;
11931;SDS011;6025;51.368;6.788;2023-03-05T08:28:00;7.73;;;2.50;;
11931;SDS011;6025;51.368;6.788;2023-03-05T08:32:53;5.10;;;2.37;;
11931;SDS011;6025;51.368;6.788;2023-03-05T08:37:44;7.50;;;2.73;;
11931;SDS011;6025;51.368;6.788;2023-03-05T08:42:36;6.07;;;2.10;;
11931;SDS011;6025;51.368;6.788;2023-03-05T08:47:27;8.33;;;2.50;;
11931;SDS011;6025;51.368;6.788;2023-03-05T08:52:20;7.23;;;2.83;;
11931;SDS011;6025;51.368;6.788;2023-03-05T08:57:12;8.43;;;3.53;;
11931;SDS011;6025;51.368;6.788;2023-03-05T09:02:03;7.37;;;3.40;;
11931;SDS011;6025;51.368;6.788;2023-03-05T09:06:55;10.63;;;3.80;;
11931;SDS011;6025;51.368;6.788;2023-03-05T09:11:48;11.33;;;3.90;;
11931;SDS011;6025;51.368;6.788;2023-03-05T09:16:41;7.43;;;3.90;;
11931;SDS011;6025;51.368;6.788;2023-03-05T09:21:32;7.83;;;4.40;;
11931;SDS011;6025;51.368;6.788;2023-03-05T09:26:24;8.10;;;3.70;;
11931;SDS011;6025;51.368;6.788;2023-03-05T09:31:17;8.43;;;3.53;;
11931;SDS011;6025;51.368;6.788;2023-03-05T09:36:15;5.83;;;2.60;;
11931;SDS011;6025;51.368;6.788;2023-03-05T09:41:15;6.90;;;2.87;;
11931;SDS011;6025;51.368;6.788;2023-03-05T09:46:12;5.00;;;2.80;;
11931;SDS011;6025;51.368;6.788;2023-03-05T09:51:11;4.00;;;2.77;;
11931;SDS011;6025;51.368;6.788;2023-03-05T09:56:09;6.30;;;2.60;;
11931;SDS011;6025;51.368;6.788;2023-03-05T10:01:02;4.53;;;2.47;;
11931;SDS011;6025;51.368;6.788;2023-03-05T10:05:59;4.93;;;2.57;;
11931;SDS011;6025;51.368;6.788;2023-03-05T10:10:54;5.50;;;2.50;;
11931;SDS011;6025;51.368;6.788;2023-03-05T10:15:47;3.27;;;2.13;;
11931;SDS011;6025;51.368;6.788;2023-03-05T10:20:54;4.47;;;2.40;;
11931;SDS011;6025;51.368;6.788;2023-03-05T10:25:53;3.37;;;2.00;;
11931;SDS011;6025;51.368;6.788;2023-03-05T10:30:54;3.40;;;2.13;;
11931;SDS011;6025;51.368;6.788;2023-03-05T10:41:21;4.70;;;2.00;;
11931;SDS011;6025;51.368;6.788;2023-03-05T10:46:19;3.00;;;2.00;;
11931;SDS011;6025;51.368;6.788;2023-03-05T10:51:12;3.27;;;2.10;;
11931;SDS011;6025;51.368;6.788;2023-03-05T10:56:05;3.40;;;2.03;;
11931;SDS011;6025;51.368;6.788;2023-03-05T11:01:02;2.70;;;2.10;;
11931;SDS011;6025;51.368;6.788;2023-03-05T11:05:58;3.80;;;2.30;;
11931;SDS011;6025;51.368;6.788;2023-03-05T11:11:01;4.23;;;2.20;;
11931;SDS011;6025;51.368;6.788;2023-03-05T11:16:15;3.53;;;1.90;;
11931;SDS011;6025;51.368;6.788;2023-03-05T11:21:09;3.40;;;1.87;;
11931;SDS011;6025;51.368;6.788;2023-03-05T11:26:03;4.77;;;2.00;;
11931;SDS011;6025;51.368;6.788;2023-03-05T11:30:57;3.57;;;1.80;;
11931;SDS011;6025;51.368;6.788;2023-03-05T11:36:12;3.40;;;1.50;;
11931;SDS011;6025;51.368;6.788;2023-03-05T11:41:12;4.30;;;1.50;;
11931;SDS011;6025;51.368;6.788;2023-03-05T11:46:04;2.33;;;1.40;;
11931;SDS011;6025;51.368;6.788;2023-03-05T11:50:56;3.27;;;1.63;;
11931;SDS011;6025;51.368;6.788;2023-03-05T11:55:52;4.97;;;1.67;;
11931;SDS011;6025;51.368;6.788;2023-03-05T12:00:46;3.73;;;1.60;;
11931;SDS011;6025;51.368;6.788;2023-03-05T12:05:38;3.10;;;1.40;;
11931;SDS011;6025;51.368;6.788;2023-03-05T12:10:32;2.60;;;1.40;;
11931;SDS011;6025;51.368;6.788;2023-03-05T12:15:27;2.83;;;1.40;;
11931;SDS011;6025;51.368;6.788;2023-03-05T12:20:26;3.30;;;1.50;;
11931;SDS011;6025;51.368;6.788;2023-03-05T12:25:27;2.97;;;1.60;;
11931;SDS011;6025;51.368;6.788;2023-03-05T12:35:46;3.80;;;2.37;;
11931;SDS011;6025;51.368;6.788;2023-03-05T12:40:38;2.80;;;2.07;;
11931;SDS011;6025;51.368;6.788;2023-03-05T12:45:36;4.70;;;2.00;;
11931;SDS011;6025;51.368;6.788;2023-03-05T12:50:49;2.50;;;1.87;;
11931;SDS011;6025;51.368;6.788;2023-03-05T12:55:44;3.60;;;2.10;;
11931;SDS011;6025;51.368;6.788;2023-03-05T13:00:42;3.97;;;2.30;;
11931;SDS011;6025;51.368;6.788;2023-03-05T13:05:36;2.53;;;2.07;;
11931;SDS011;6025;51.368;6.788;2023-03-05T13:10:29;4.63;;;3.00;;
11931;SDS011;6025;51.368;6.788;2023-03-05T13:15:21;2.47;;;2.20;;
11931;SDS011;6025;51.368;6.788;2023-03-05T13:20:30;3.83;;;2.50;;
11931;SDS011;6025;51.368;6.788;2023-03-05T13:25:25;2.50;;;2.00;;
11931;SDS011;6025;51.368;6.788;2023-03-05T13:30:22;3.53;;;1.90;;
11931;SDS011;6025;51.368;6.788;2023-03-05T13:35:15;3.57;;;1.87;;
11931;SDS011;6025;51.368;6.788;2023-03-05T13:40:14;2.97;;;2.10;;
11931;SDS011;6025;51.368;6.788;2023-03-05T13:45:19;3.57;;;2.20;;
11931;SDS011;6025;51.368;6.788;2023-03-05T13:50:21;3.73;;;1.80;;
11931;SDS011;6025;51.368;6.788;2023-03-05T13:55:15;4.17;;;2.00;;
11931;SDS011;6025;51.368;6.788;2023-03-05T14:05:27;3.97;;;2.30;;
11931;SDS011;6025;51.368;6.788;2023-03-05T14:10:27;2.80;;;2.07;;
11931;SDS011;6025;51.368;6.788;2023-03-05T14:15:21;3.43;;;1.97;;
11931;SDS011;6025;51.368;6.788;2023-03-05T14:20:19;3.20;;;2.10;;
11931;SDS011;6025;51.368;6.788;2023-03-05T14:25:26;2.50;;;1.80;;
11931;SDS011;6025;51.368;6.788;2023-03-05T14:30:19;3.37;;;2.07;;
11931;SDS011;6025;51.368;6.788;2023-03-05T14:35:15;3.20;;;2.60;;
11931;SDS011;6025;51.368;6.788;2023-03-05T14:40:16;4.40;;;2.60;;
11931;SDS011;6025;51.368;6.788;2023-03-05T14:45:11;4.60;;;2.47;;
11931;SDS011;6025;51.368;6.788;2023-03-05T14:50:03;4.00;;;2.63;;
11931;SDS011;6025;51.368;6.788;2023-03-05T14:54:56;3.77;;;2.23;;
11931;SDS011;6025;51.368;6.788;2023-03-05T14:59:47;3.23;;;2.40;;
11931;SDS011;6025;51.368;6.788;2023-03-05T15:04:40;2.40;;;1.97;;
11931;SDS011;6025;51.368;6.788;2023-03-05T15:09:34;3.43;;;2.10;;
11931;SDS011;6025;51.368;6.788;2023-03-05T15:14:26;4.07;;;2.00;;
11931;SDS011;6025;51.368;6.788;2023-03-05T15:19:18;3.57;;;1.80;;
11931;SDS011;6025;51.368;6.788;2023-03-05T15:24:11;2.10;;;1.70;;
11931;SDS011;6025;51.368;6.788;2023-03-05T15:29:03;2.90;;;2.00;;
11931;SDS011;6025;51.368;6.788;2023-03-05T15:33:55;2.33;;;1.80;;
11931;SDS011;6025;51.368;6.788;2023-03-05T15:38:46;4.03;;;2.40;;
11931;SDS011;6025;51.368;6.788;2023-03-05T15:43:39;3.37;;;2.20;;
11931;SDS011;6025;51.368;6.788;2023-03-05T15:48:31;4.20;;;2.80;;
11931;SDS011;6025;51.368;6.788;2023-03-05T15:53:22;2.13;;;1.93;;
11931;SDS011;6025;51.368;6.788;2023-03-05T15:58:14;2.80;;;2.20;;
11931;SDS011;6025;51.368;6.788;2023-03-05T16:03:08;3.70;;;2.40;;
11931;SDS011;6025;51.368;6.788;2023-03-05T16:07:59;3.50;;;2.50;;
11931;SDS011;6025;51.368;6.788;2023-03-05T16:12:51;2.73;;;2.10;;
11931;SDS011;6025;51.368;6.788;2023-03-05T16:17:45;3.40;;;2.27;;
11931;SDS011;6025;51.368;6.788;2023-03-05T16:22:40;2.50;;;1.83;;
11931;SDS011;6025;51.368;6.788;2023-03-05T16:27:31;3.60;;;2.00;;
11931;SDS011;6025;51.368;6.788;2023-03-05T16:32:23;4.17;;;2.23;;
11931;SDS011;6025;51.368;6.788;2023-03-05T16:37:17;2.97;;;2.17;;
11931;SDS011;6025;51.368;6.788;2023-03-05T16:42:11;3.73;;;2.30;;
11931;SDS011;6025;51.368;6.788;2023-03-05T16:47:03;3.03;;;1.90;;
11931;SDS011;6025;51.368;6.788;2023-03-05T16:51:56;4.10;;;2.27;;
11931;SDS011;6025;51.368;6.788;2023-03-05T16:56:47;4.47;;;2.40;;
11931;SDS011;6025;51.368;6.788;2023-03-05T17:01:40;3.00;;;2.20;;
11931;SDS011;6025;51.368;6.788;2023-03-05T17:06:32;3.10;;;2.00;;
11931;SDS011;6025;51.368;6.788;2023-03-05T17:11:23;4.03;;;2.30;;
11931;SDS011;6025;51.368;6.788;2023-03-05T17:16:16;3.33;;;2.20;;
11931;SDS011;6025;51.368;6.788;2023-03-05T17:21:11;2.93;;;2.43;;
11931;SDS011;6025;51.368;6.788;2023-03-05T17:26:03;3.43;;;2.63;;
11931;SDS011;6025;51.368;6.788;2023-03-05T17:30:55;2.80;;;2.30;;
11931;SDS011;6025;51.368;6.788;2023-03-05T17:35:49;2.90;;;2.60;;
11931;SDS011;6025;51.368;6.788;2023-03-05T17:40:42;4.20;;;2.80;;
11931;SDS011;6025;51.368;6.788;2023-03-05T17:45:33;5.10;;;3.17;;
11931;SDS011;6025;51.368;6.788;2023-03-05T17:50:25;4.37;;;3.20;;
11931;SDS011;6025;51.368;6.788;2023-03-05T17:55:16;5.27;;;2.80;;
11931;SDS011;6025;51.368;6.788;2023-03-05T18:00:14;5.77;;;3.27;;
11931;SDS011;6025;51.368;6.788;2023-03-05T18:05:07;4.53;;;2.90;;
11931;SDS011;6025;51.368;6.788;2023-03-05T18:09:59;3.60;;;3.00;;
11931;SDS011;6025;51.368;6.788;2023-03-05T18:14:52;4.03;;;2.90;;
11931;SDS011;6025;51.368;6.788;2023-03-05T18:19:45;5.20;;;3.30;;
11931;SDS011;6025;51.368;6.788;2023-03-05T18:24:36;4.00;;;3.10;;
11931;SDS011;6025;51.368;6.788;2023-03-05T18:29:28;3.50;;;2.83;;
11931;SDS011;6025;51.368;6.788;2023-03-05T18:34:19;4.10;;;3.27;;
11931;SDS011;6025;51.368;6.788;2023-03-05T18:39:12;4.50;;;3.10;;
11931;SDS011;6025;51.368;6.788;2023-03-05T18:44:05;4.40;;;3.17;;
11931;SDS011;6025;51.368;6.788;2023-03-05T18:48:57;5.40;;;3.27;;
11931;SDS011;6025;51.368;6.788;2023-03-05T18:53:49;4.07;;;3.03;;
11931;SDS011;6025;51.368;6.788;2023-03-05T18:58:42;5.93;;;4.07;;
11931;SDS011;6025;51.368;6.788;2023-03-05T19:03:34;7.40;;;3.97;;
11931;SDS011;6025;51.368;6.788;2023-03-05T19:08:25;7.33;;;4.40;;
11931;SDS011;6025;51.368;6.788;2023-03-05T19:13:17;5.80;;;4.40;;
11931;SDS011;6025;51.368;6.788;2023-03-05T19:18:19;5.40;;;4.37;;
11931;SDS011;6025;51.368;6.788;2023-03-05T19:23:12;6.87;;;4.03;;
11931;SDS011;6025;51.368;6.788;2023-03-05T19:28:03;5.30;;;4.00;;
11931;SDS011;6025;51.368;6.788;2023-03-05T19:32:55;5.33;;;3.93;;
11931;SDS011;6025;51.368;6.788;2023-03-05T19:37:48;4.33;;;3.83;;
11931;SDS011;6025;51.368;6.788;2023-03-05T19:42:39;6.93;;;4.40;;
11931;SDS011;6025;51.368;6.788;2023-03-05T19:47:31;7.10;;;4.13;;
11931;SDS011;6025;51.368;6.788;2023-03-05T19:52:23;5.43;;;4.50;;
11931;SDS011;6025;51.368;6.788;2023-03-05T19:57:17;6.77;;;4.70;;
11931;SDS011;6025;51.368;6.788;2023-03-05T20:02:09;6.23;;;4.50;;
11931;SDS011;6025;51.368;6.788;2023-03-05T20:07:01;5.87;;;4.40;;
11931;SDS011;6025;51.368;6.788;2023-03-05T20:11:54;4.83;;;4.40;;
11931;SDS011;6025;51.368;6.788;2023-03-05T20:16:48;5.30;;;4.57;;
11931;SDS011;6025;51.368;6.788;2023-03-05T20:21:40;5.77;;;5.00;;
11931;SDS011;6025;51.368;6.788;2023-03-05T20:26:33;5.77;;;4.87;;
11931;SDS011;6025;51.368;6.788;2023-03-05T20:31:26;5.97;;;4.30;;
11931;SDS011;6025;51.368;6.788;2023-03-05T20:36:19;5.37;;;4.87;;
11931;SDS011;6025;51.368;6.788;2023-03-05T20:41:11;6.93;;;4.80;;
11931;SDS011;6025;51.368;6.788;2023-03-05T20:46:03;5.40;;;4.90;;
11931;SDS011;6025;51.368;6.788;2023-03-05T20:50:55;7.00;;;5.90;;
11931;SDS011;6025;51.368;6.788;2023-03-05T20:55:50;6.83;;;5.87;;
11931;SDS011;6025;51.368;6.788;2023-03-05T21:00:42;6.77;;;6.03;;
11931;SDS011;6025;51.368;6.788;2023-03-05T21:05:34;6.53;;;5.77;;
11931;SDS011;6025;51.368;6.788;2023-03-05T21:10:26;6.77;;;6.07;;
11931;SDS011;6025;51.368;6.788;2023-03-05T21:15:20;7.60;;;5.67;;
11931;SDS011;6025;51.368;6.788;2023-03-05T21:20:13;6.10;;;5.50;;
11931;SDS011;6025;51.368;6.788;2023-03-05T21:25:06;6.33;;;5.07;;
11931;SDS011;6025;51.368;6.788;2023-03-05T21:30:05;5.03;;;4.30;;
11931;SDS011;6025;51.368;6.788;2023-03-05T21:34:59;4.27;;;3.87;;
11931;SDS011;6025;51.368;6.788;2023-03-05T21:39:51;4.40;;;3.90;;
11931;SDS011;6025;51.368;6.788;2023-03-05T21:44:42;4.47;;;3.40;;
11931;SDS011;6025;51.368;6.788;2023-03-05T21:49:34;4.10;;;3.67;;
11931;SDS011;6025;51.368;6.788;2023-03-05T21:54:27;4.37;;;3.27;;
11931;SDS011;6025;51.368;6.788;2023-03-05T21:59:18;4.10;;;3.70;;
11931;SDS011;6025;51.368;6.788;2023-03-05T22:04:10;6.10;;;3.80;;
11931;SDS011;6025;51.368;6.788;2023-03-05T22:09:01;4.23;;;3.33;;
11931;SDS011;6025;51.368;6.788;2023-03-05T22:13:54;5.17;;;3.53;;
11931;SDS011;6025;51.368;6.788;2023-03-05T22:18:46;4.13;;;3.73;;
11931;SDS011;6025;51.368;6.788;2023-03-05T22:23:38;4.93;;;3.63;;
11931;SDS011;6025;51.368;6.788;2023-03-05T22:28:29;3.90;;;3.50;;
11931;SDS011;6025;51.368;6.788;2023-03-05T22:33:23;6.03;;;3.57;;
11931;SDS011;6025;51.368;6.788;2023-03-05T22:38:16;4.70;;;4.00;;
11931;SDS011;6025;51.368;6.788;2023-03-05T22:43:08;4.87;;;3.80;;
11931;SDS011;6025;51.368;6.788;2023-03-05T22:47:59;4.70;;;4.20;;
11931;SDS011;6025;51.368;6.788;2023-03-05T22:52:52;8.57;;;5.07;;
11931;SDS011;6025;51.368;6.788;2023-03-05T22:57:44;8.27;;;5.43;;
11931;SDS011;6025;51.368;6.788;2023-03-05T23:02:35;6.50;;;5.63;;
11931;SDS011;6025;51.368;6.788;2023-03-05T23:07:27;6.60;;;5.63;;
11931;SDS011;6025;51.368;6.788;2023-03-05T23:12:23;7.03;;;5.03;;
11931;SDS011;6025;51.368;6.788;2023-03-05T23:17:16;5.37;;;4.50;;
11931;SDS011;6025;51.368;6.788;2023-03-05T23:22:08;5.17;;;4.50;;
11931;SDS011;6025;51.368;6.788;2023-03-05T23:27:00;5.53;;;4.73;;
11931;SDS011;6025;51.368;6.788;2023-03-05T23:31:55;6.73;;;5.07;;
11931;SDS011;6025;51.368;6.788;2023-03-05T23:36:47;5.67;;;4.63;;
11931;SDS011;6025;51.368;6.788;2023-03-05T23:41:38;6.23;;;4.30;;
11931;SDS011;6025;51.368;6.788;2023-03-05T23:46:30;6.27;;;5.00;;
11931;SDS011;6025;51.368;6.788;2023-03-05T23:51:23;5.20;;;4.70;;
11931;SDS011;6025;51.368;6.788;2023-03-05T23:56:14;6.17;;;4.53;;
